createdAt,value
2022-11-05T00:00:38.327Z,97178.94
2022-11-05T00:03:28.867Z,97183.02
2022-11-05T00:06:15.527Z,97186.03
2022-11-05T00:09:02.545Z,97184.95
2022-11-05T00:11:53.661Z,97180.42
2022-11-05T00:14:40.678Z,97177.60
2022-11-05T00:17:08.641Z,97174.84
2022-11-05T00:19:36.821Z,97175.91
2022-11-05T00:22:23.423Z,97176.13
2022-11-05T00:25:09.927Z,97172.02
2022-11-05T00:27:37.901Z,97166.39
2022-11-05T00:30:07.379Z,97166.94
2022-11-05T00:32:37.891Z,97163.91
2022-11-05T00:35:09.280Z,97165.66
2022-11-05T00:37:37.629Z,97166.39
2022-11-05T00:40:07.254Z,97168.70
2022-11-05T00:42:54.085Z,97175.30
2022-11-05T00:45:22.051Z,97178.66
2022-11-05T00:48:08.584Z,97182.52
2022-11-05T00:50:36.930Z,97177.84
2022-11-05T00:53:05.935Z,97175.02
2022-11-05T00:55:43.438Z,97175.15
2022-11-05T00:58:19.784Z,97176.86
2022-11-05T01:00:59.015Z,97172.46
2022-11-05T01:03:30.177Z,97165.46
2022-11-05T01:06:07.346Z,97163.33
2022-11-05T01:08:35.730Z,97163.02
2022-11-05T01:11:34.307Z,97163.77
2022-11-05T01:14:04.174Z,97164.41
2022-11-05T01:16:32.515Z,97166.86
2022-11-05T01:19:01.599Z,97172.30
2022-11-05T01:21:29.808Z,97175.50
2022-11-05T01:23:57.853Z,97173.61
2022-11-05T01:26:27.256Z,97170.77
2022-11-05T01:28:57.862Z,97162.70
2022-11-05T01:31:26.879Z,97156.33
2022-11-05T01:33:54.861Z,97148.94
2022-11-05T01:36:22.940Z,97148.05
2022-11-05T01:38:50.988Z,97150.14
2022-11-05T01:41:18.957Z,97148.90
2022-11-05T01:43:50.195Z,97149.69
2022-11-05T01:46:23.907Z,97148.70
2022-11-05T01:49:00.053Z,97144.86
2022-11-05T01:51:30.737Z,97142.18
2022-11-05T01:54:06.152Z,97139.36
2022-11-05T01:56:38.722Z,97141.08
2022-11-05T01:59:12.077Z,97141.14
2022-11-05T02:01:40.401Z,97144.92
2022-11-05T02:04:16.767Z,97149.04
2022-11-05T02:06:48.157Z,97156.05
2022-11-05T02:09:22.741Z,97153.91
2022-11-05T02:11:51.844Z,97150.35
2022-11-05T02:14:20.524Z,97152.11
2022-11-05T02:16:48.695Z,97154.65
2022-11-05T02:19:32.125Z,97154.23
2022-11-05T02:22:35.526Z,97154.20
2022-11-05T02:25:43.949Z,97151.27
2022-11-05T02:28:27.379Z,97149.48
2022-11-05T02:30:59.644Z,97144.90
2022-11-05T02:33:56.989Z,97142.60
2022-11-05T02:36:40.126Z,97143.44
2022-11-05T02:39:17.284Z,97137.61
2022-11-05T02:42:00.609Z,97136.97
2022-11-05T02:44:41.515Z,97148.33
2022-11-05T02:47:12.895Z,97150.10
2022-11-05T02:50:16.985Z,97147.80
2022-11-05T02:53:14.180Z,97151.72
2022-11-05T02:55:47.395Z,97151.33
2022-11-05T02:58:15.411Z,97145.21
2022-11-05T03:00:53.100Z,97147.66
2022-11-05T03:04:01.002Z,97148.91
2022-11-05T03:06:47.508Z,97154.99
2022-11-05T03:09:26.771Z,97158.96
2022-11-05T03:11:54.809Z,97157.39
2022-11-05T03:14:45.698Z,97161.15
2022-11-05T03:17:37.968Z,97159.42
2022-11-05T03:20:11.554Z,97158.26
2022-11-05T03:22:56.015Z,97151.43
2022-11-05T03:25:29.513Z,97147.88
2022-11-05T03:28:03.677Z,97145.27
2022-11-05T03:30:35.725Z,97144.53
2022-11-05T03:33:11.155Z,97138.73
2022-11-05T03:35:45.222Z,97131.81
2022-11-05T03:38:21.622Z,97132.29
2022-11-05T03:40:52.049Z,97131.17
2022-11-05T03:43:23.807Z,97134.84
2022-11-05T03:46:01.029Z,97136.30
2022-11-05T03:48:31.704Z,97143.59
2022-11-05T03:51:25.396Z,97147.46
2022-11-05T03:53:58.537Z,97154.34
2022-11-05T03:56:44.788Z,97152.27
2022-11-05T03:59:13.845Z,97155.48
2022-11-05T04:01:42.488Z,97158.42
2022-11-05T04:04:10.739Z,97162.33
2022-11-05T04:06:57.334Z,97162.84
2022-11-05T04:09:44.158Z,97164.46
2022-11-05T04:12:30.556Z,97161.98
2022-11-05T04:14:58.535Z,97156.41
2022-11-05T04:17:26.706Z,97156.44
2022-11-05T04:20:13.006Z,97152.61
2022-11-05T04:22:59.613Z,97151.59
2022-11-05T04:25:27.883Z,97155.02
2022-11-05T04:28:00.617Z,97150.59
2022-11-05T04:30:28.840Z,97151.77
2022-11-05T04:33:06.106Z,97153.95
2022-11-05T04:35:39.874Z,97154.64
2022-11-05T04:38:11.967Z,97157.05
2022-11-05T04:40:39.976Z,97159.19
2022-11-05T04:43:14.584Z,97160.79
2022-11-05T04:45:43.565Z,97160.42
2022-11-05T04:48:12.684Z,97158.34
2022-11-05T04:50:40.867Z,97159.02
2022-11-05T04:53:09.140Z,97161.92
2022-11-05T04:55:37.414Z,97169.44
2022-11-05T04:58:06.404Z,97171.79
2022-11-05T05:00:34.439Z,97176.49
2022-11-05T05:03:02.555Z,97178.88
2022-11-05T05:05:30.835Z,97184.57
2022-11-05T05:08:05.447Z,97186.44
2022-11-05T05:10:33.406Z,97186.57
2022-11-05T05:13:01.338Z,97183.23
2022-11-05T05:15:29.254Z,97182.13
2022-11-05T05:17:57.328Z,97181.83
2022-11-05T05:20:43.730Z,97181.25
2022-11-05T05:23:12.055Z,97179.30
2022-11-05T05:25:40.276Z,97180.49
2022-11-05T05:28:08.355Z,97181.43
2022-11-05T05:30:36.965Z,97180.27
2022-11-05T05:33:05.024Z,97185.88
2022-11-05T05:35:33.019Z,97189.79
2022-11-05T05:38:01.055Z,97188.83
2022-11-05T05:40:29.024Z,97193.73
2022-11-05T05:42:57.094Z,97201.46
2022-11-05T05:45:24.945Z,97204.23
2022-11-05T05:47:56.107Z,97205.73
2022-11-05T05:50:24.177Z,97206.63
2022-11-05T05:52:53.893Z,97211.23
2022-11-05T05:55:22.066Z,97208.95
2022-11-05T05:57:50.037Z,97205.64
2022-11-05T06:00:18.205Z,97210.88
2022-11-05T06:02:46.547Z,97213.88
2022-11-05T06:05:14.870Z,97220.20
2022-11-05T06:07:42.932Z,97225.04
2022-11-05T06:10:11.006Z,97226.27
2022-11-05T06:12:38.971Z,97230.04
2022-11-05T06:15:07.456Z,97234.95
2022-11-05T06:17:35.426Z,97242.16
2022-11-05T06:20:03.834Z,97253.33
2022-11-05T06:22:31.876Z,97255.27
2022-11-05T06:24:59.947Z,97246.55
2022-11-05T06:27:29.563Z,97245.14
2022-11-05T06:29:57.633Z,97245.83
2022-11-05T06:32:25.598Z,97245.55
2022-11-05T06:34:53.776Z,97243.95
2022-11-05T06:37:21.712Z,97241.55
2022-11-05T06:39:49.723Z,97239.11
2022-11-05T06:42:19.074Z,97237.70
2022-11-05T06:44:47.593Z,97246.70
2022-11-05T06:47:15.665Z,97256.67
2022-11-05T06:49:43.663Z,97262.53
2022-11-05T06:52:12.627Z,97263.63
2022-11-05T06:54:42.474Z,97259.14
2022-11-05T06:57:12.056Z,97257.81
2022-11-05T06:59:40.334Z,97260.48
2022-11-05T07:02:11.809Z,97258.88
2022-11-05T07:04:40.163Z,97253.10
2022-11-05T07:07:08.227Z,97256.80
2022-11-05T07:09:40.617Z,97253.08
2022-11-05T07:12:09.373Z,97247.23
2022-11-05T07:14:37.466Z,97245.94
2022-11-05T07:17:05.537Z,97249.28
2022-11-05T07:19:33.462Z,97251.77
2022-11-05T07:22:01.487Z,97252.34
2022-11-05T07:24:29.651Z,97253.54
2022-11-05T07:26:57.719Z,97254.08
2022-11-05T07:29:25.796Z,97252.16
2022-11-05T07:31:53.860Z,97248.20
2022-11-05T07:34:21.939Z,97248.74
2022-11-05T07:36:49.919Z,97250.23
2022-11-05T07:39:17.861Z,97249.55
2022-11-05T07:41:46.061Z,97245.02
2022-11-05T07:44:14.739Z,97244.75
2022-11-05T07:46:42.685Z,97242.77
2022-11-05T07:49:10.571Z,97239.08
2022-11-05T07:51:38.777Z,97240.37
2022-11-05T07:54:06.699Z,97238.61
2022-11-05T07:56:34.792Z,97241.89
2022-11-05T07:59:03.676Z,97240.29
2022-11-05T08:01:32.052Z,97241.07
2022-11-05T08:04:00.862Z,97242.75
2022-11-05T08:06:28.820Z,97245.58
2022-11-05T08:08:56.743Z,97246.25
2022-11-05T08:11:24.758Z,97244.99
2022-11-05T08:13:52.722Z,97247.56
2022-11-05T08:16:20.691Z,97245.02
2022-11-05T08:18:48.732Z,97245.77
2022-11-05T08:21:16.836Z,97246.46
2022-11-05T08:23:45.519Z,97245.85
2022-11-05T08:26:13.598Z,97247.31
2022-11-05T08:28:41.768Z,97249.20
2022-11-05T08:31:09.842Z,97252.40
2022-11-05T08:33:38.120Z,97253.63
2022-11-05T08:36:06.905Z,97255.62
2022-11-05T08:38:34.982Z,97260.16
2022-11-05T08:41:03.359Z,97258.88
2022-11-05T08:43:31.433Z,97261.38
2022-11-05T08:46:02.475Z,97261.77
2022-11-05T08:48:30.541Z,97260.77
2022-11-05T08:51:01.251Z,97261.49
2022-11-05T08:53:29.258Z,97263.27
2022-11-05T08:56:00.796Z,97262.80
2022-11-05T08:58:28.971Z,97261.92
2022-11-05T09:01:01.828Z,97262.61
2022-11-05T09:03:32.905Z,97262.36
2022-11-05T09:06:00.968Z,97260.06
2022-11-05T09:08:29.197Z,97260.52
2022-11-05T09:10:57.937Z,97263.11
2022-11-05T09:13:27.295Z,97261.66
2022-11-05T09:15:58.275Z,97262.73
2022-11-05T09:18:26.759Z,97263.96
2022-11-05T09:20:54.833Z,97267.46
2022-11-05T09:23:23.006Z,97267.36
2022-11-05T09:25:51.072Z,97264.95
2022-11-05T09:28:20.676Z,97260.85
2022-11-05T09:30:52.813Z,97258.90
2022-11-05T09:33:24.152Z,97257.04
2022-11-05T09:35:53.742Z,97260.79
2022-11-05T09:38:22.096Z,97258.71
2022-11-05T09:41:01.768Z,97260.14
2022-11-05T09:43:41.062Z,97256.21
2022-11-05T09:46:19.166Z,97253.88
2022-11-05T09:48:52.520Z,97248.70
2022-11-05T09:51:24.137Z,97250.55
2022-11-05T09:53:53.771Z,97252.21
2022-11-05T09:56:29.680Z,97255.52
2022-11-05T09:59:11.859Z,97251.52
2022-11-05T10:01:41.377Z,97253.03
2022-11-05T10:04:17.143Z,97249.02
2022-11-05T10:07:07.748Z,97250.30
2022-11-05T10:10:07.945Z,97249.64
2022-11-05T10:12:50.990Z,97246.02
2022-11-05T10:15:25.114Z,97242.75
2022-11-05T10:18:19.123Z,97245.05
2022-11-05T10:20:47.703Z,97241.30
2022-11-05T10:23:21.679Z,97237.79
2022-11-05T10:25:58.767Z,97234.66
2022-11-05T10:28:29.657Z,97231.23
2022-11-05T10:31:00.947Z,97226.77
2022-11-05T10:33:54.521Z,97224.85
2022-11-05T10:36:35.292Z,97226.63
2022-11-05T10:39:15.550Z,97229.99
2022-11-05T10:42:01.947Z,97233.38
2022-11-05T10:44:39.132Z,97235.88
2022-11-05T10:47:33.838Z,97234.62
2022-11-05T10:50:05.208Z,97231.44
2022-11-05T10:52:40.135Z,97230.80
2022-11-05T10:55:26.003Z,97230.16
2022-11-05T10:57:54.480Z,97230.85
2022-11-05T11:00:25.351Z,97225.30
2022-11-05T11:02:54.411Z,97224.92
2022-11-05T11:05:31.601Z,97228.48
2022-11-05T11:08:11.653Z,97226.23
2022-11-05T11:10:50.484Z,97228.47
2022-11-05T11:13:48.042Z,97224.42
2022-11-05T11:16:21.782Z,97219.28
2022-11-05T11:19:00.877Z,97213.35
2022-11-05T11:21:31.402Z,97213.14
2022-11-05T11:24:06.999Z,97210.80
2022-11-05T11:26:40.454Z,97213.89
2022-11-05T11:29:26.236Z,97215.42
2022-11-05T11:31:59.549Z,97214.65
2022-11-05T11:34:31.187Z,97209.88
2022-11-05T11:37:08.770Z,97207.95
2022-11-05T11:39:39.514Z,97211.05
2022-11-05T11:42:18.341Z,97207.85
2022-11-05T11:44:48.050Z,97204.02
2022-11-05T11:47:18.998Z,97204.30
2022-11-05T11:49:49.723Z,97199.18
2022-11-05T11:52:31.926Z,97202.91
2022-11-05T11:55:20.007Z,97197.58
2022-11-05T11:57:51.116Z,97199.73
2022-11-05T12:00:21.273Z,97198.15
2022-11-05T12:03:15.937Z,97196.20
2022-11-05T12:05:47.477Z,97194.67
2022-11-05T12:09:03.404Z,97195.42
2022-11-05T12:11:55.616Z,97196.71
2022-11-05T12:14:48.366Z,97196.34
2022-11-05T12:17:19.509Z,97199.93
2022-11-05T12:19:53.209Z,97200.64
2022-11-05T12:22:39.573Z,97200.84
2022-11-05T12:25:18.743Z,97205.17
2022-11-05T12:27:55.898Z,97205.64
2022-11-05T12:30:24.310Z,97208.02
2022-11-05T12:33:04.747Z,97203.43
2022-11-05T12:35:58.310Z,97206.06
2022-11-05T12:38:26.420Z,97204.59
2022-11-05T12:41:06.570Z,97205.23
2022-11-05T12:44:02.388Z,97205.48
2022-11-05T12:47:08.040Z,97208.19
2022-11-05T12:49:43.696Z,97215.80
2022-11-05T12:52:39.722Z,97216.30
2022-11-05T12:55:24.187Z,97220.11
2022-11-05T12:57:57.571Z,97220.23
2022-11-05T13:00:28.154Z,97213.77
2022-11-05T13:02:58.834Z,97212.55
2022-11-05T13:05:29.874Z,97209.08
2022-11-05T13:08:07.779Z,97215.52
2022-11-05T13:10:46.811Z,97217.16
2022-11-05T13:14:02.390Z,97215.14
2022-11-05T13:16:36.607Z,97211.16
2022-11-05T13:19:35.303Z,97214.35
2022-11-05T13:22:21.498Z,97215.20
2022-11-05T13:24:53.106Z,97214.53
2022-11-05T13:27:55.327Z,97211.67
2022-11-05T13:30:26.685Z,97214.20
2022-11-05T13:33:04.264Z,97214.61
2022-11-05T13:35:48.833Z,97215.80
2022-11-05T13:38:44.234Z,97218.00
2022-11-05T13:41:31.662Z,97218.06
2022-11-05T13:44:24.746Z,97222.13
2022-11-05T13:47:25.061Z,97220.48
2022-11-05T13:49:55.881Z,97221.23
2022-11-05T13:52:49.561Z,97222.53
2022-11-05T13:55:52.649Z,97220.96
2022-11-05T13:58:43.657Z,97220.04
2022-11-05T14:01:30.189Z,97220.33
2022-11-05T14:03:58.440Z,97219.55
2022-11-05T14:06:33.834Z,97219.80
2022-11-05T14:09:11.891Z,97221.73
2022-11-05T14:11:50.090Z,97227.05
2022-11-05T14:14:23.193Z,97231.84
2022-11-05T14:17:09.701Z,97237.22
2022-11-05T14:19:51.999Z,97240.88
2022-11-05T14:22:41.155Z,97245.90
2022-11-05T14:25:18.145Z,97247.49
2022-11-05T14:27:51.950Z,97251.90
2022-11-05T14:30:41.209Z,97252.99
2022-11-05T14:33:24.454Z,97249.77
2022-11-05T14:36:20.996Z,97252.49
2022-11-05T14:38:51.563Z,97248.36
2022-11-05T14:41:20.961Z,97250.29
2022-11-05T14:44:10.288Z,97253.08
2022-11-05T14:46:51.159Z,97253.38
2022-11-05T14:49:24.869Z,97251.27
2022-11-05T14:51:56.119Z,97248.86
2022-11-05T14:54:24.493Z,97249.54
2022-11-05T14:56:56.264Z,97248.64
2022-11-05T14:59:24.845Z,97252.13
2022-11-05T15:02:14.818Z,97251.95
2022-11-05T15:04:45.794Z,97252.85
2022-11-05T15:07:35.859Z,97253.04
2022-11-05T15:10:12.043Z,97251.44
2022-11-05T15:12:52.265Z,97253.02
2022-11-05T15:15:30.683Z,97251.97
2022-11-05T15:18:03.871Z,97250.55
2022-11-05T15:20:40.375Z,97249.11
2022-11-05T15:23:14.432Z,97248.86
2022-11-05T15:25:59.934Z,97250.02
2022-11-05T15:28:37.141Z,97253.28
2022-11-05T15:31:14.105Z,97253.53
2022-11-05T15:33:45.254Z,97253.48
2022-11-05T15:36:32.058Z,97255.85
2022-11-05T15:39:27.816Z,97255.92
2022-11-05T15:41:48.066Z,97259.91
2022-11-05T15:44:28.282Z,97259.41
2022-11-05T15:47:17.698Z,97260.66
2022-11-05T15:49:50.185Z,97259.30
2022-11-05T15:52:20.909Z,97261.45
2022-11-05T15:55:17.851Z,97264.58
2022-11-05T15:58:07.058Z,97265.13
2022-11-05T16:00:36.938Z,97270.39
2022-11-05T16:03:06.862Z,97265.67
2022-11-05T16:05:42.194Z,97273.27
2022-11-05T16:08:20.797Z,97278.56
2022-11-05T16:10:51.991Z,97277.12
2022-11-05T16:13:29.240Z,97285.13
2022-11-05T16:16:01.441Z,97280.73
2022-11-05T16:18:35.805Z,97280.81
2022-11-05T16:21:19.058Z,97283.67
2022-11-05T16:23:49.814Z,97284.42
2022-11-05T16:27:01.966Z,97285.01
2022-11-05T16:29:32.525Z,97287.32
2022-11-05T16:32:03.807Z,97287.63
2022-11-05T16:34:41.484Z,97285.83
2022-11-05T16:37:15.119Z,97286.49
2022-11-05T16:39:43.145Z,97287.86
2022-11-05T16:42:34.148Z,97287.66
2022-11-05T16:45:02.119Z,97290.69
2022-11-05T16:47:31.629Z,97290.02
2022-11-05T16:49:59.603Z,97291.70
2022-11-05T16:52:27.772Z,97293.81
2022-11-05T16:54:55.800Z,97296.98
2022-11-05T16:57:29.389Z,97301.03
2022-11-05T16:59:59.366Z,97300.69
2022-11-05T17:02:28.409Z,97298.13
2022-11-05T17:04:56.471Z,97299.34
2022-11-05T17:07:24.540Z,97306.46
2022-11-05T17:09:52.575Z,97307.33
2022-11-05T17:12:20.639Z,97306.60
2022-11-05T17:14:48.712Z,97308.71
2022-11-05T17:17:16.686Z,97312.31
2022-11-05T17:19:45.677Z,97314.96
2022-11-05T17:22:13.751Z,97316.59
2022-11-05T17:24:41.824Z,97315.97
2022-11-05T17:27:09.991Z,97317.95
2022-11-05T17:29:37.945Z,97317.94
2022-11-05T17:32:06.417Z,97317.16
2022-11-05T17:34:34.439Z,97320.42
2022-11-05T17:37:02.484Z,97323.01
2022-11-05T17:39:31.864Z,97321.84
2022-11-05T17:42:00.273Z,97321.27
2022-11-05T17:44:28.287Z,97322.55
2022-11-05T17:46:56.312Z,97322.44
2022-11-05T17:49:24.489Z,97323.93
2022-11-05T17:51:52.559Z,97324.85
2022-11-05T17:54:20.630Z,97324.02
2022-11-05T17:56:48.566Z,97324.39
2022-11-05T17:59:16.870Z,97325.54
2022-11-05T18:01:46.224Z,97326.11
2022-11-05T18:04:14.656Z,97327.00
2022-11-05T18:06:43.062Z,97328.85
2022-11-05T18:09:12.135Z,97331.79
2022-11-05T18:11:41.330Z,97335.88
2022-11-05T18:14:09.623Z,97339.80
2022-11-05T18:16:37.741Z,97344.67
2022-11-05T18:19:06.054Z,97353.49
2022-11-05T18:21:34.022Z,97359.87
2022-11-05T18:24:03.843Z,97366.69
2022-11-05T18:26:32.521Z,97368.02
2022-11-05T18:29:05.800Z,97374.95
2022-11-05T18:31:33.808Z,97381.52
2022-11-05T18:34:02.132Z,97383.71
2022-11-05T18:36:32.394Z,97387.85
2022-11-05T18:39:02.494Z,97392.20
2022-11-05T18:41:30.577Z,97393.04
2022-11-05T18:44:03.681Z,97391.87
2022-11-05T18:46:57.153Z,97396.65
2022-11-05T18:49:21.723Z,97395.86
2022-11-05T18:51:49.908Z,97399.74
2022-11-05T18:54:17.974Z,97397.95
2022-11-05T18:56:46.646Z,97400.31
2022-11-05T19:02:09.034Z,97409.55
2022-11-05T19:04:37.503Z,97410.06
2022-11-05T19:07:06.899Z,97408.80
2022-11-05T19:09:37.006Z,97411.91
2022-11-05T19:12:06.439Z,97415.88
2022-11-05T19:14:35.835Z,97416.71
2022-11-05T19:17:04.460Z,97420.52
2022-11-05T19:19:32.481Z,97423.17
2022-11-05T19:22:00.765Z,97426.83
2022-11-05T19:24:29.119Z,97432.21
2022-11-05T19:26:57.331Z,97428.80
2022-11-05T19:29:25.492Z,97429.65
2022-11-05T19:31:53.665Z,97438.81
2022-11-05T19:34:21.633Z,97441.16
2022-11-05T19:36:49.640Z,97449.61
2022-11-05T19:39:17.625Z,97448.61
2022-11-05T19:41:45.768Z,97450.05
2022-11-05T19:44:13.713Z,97451.16
2022-11-05T19:46:41.784Z,97455.15
2022-11-05T19:49:10.679Z,97456.30
2022-11-05T19:51:39.602Z,97450.80
2022-11-05T19:54:09.181Z,97451.52
2022-11-05T19:56:38.467Z,97454.84
2022-11-05T19:59:09.513Z,97454.17
2022-11-05T20:01:37.843Z,97457.66
2022-11-05T20:04:06.349Z,97459.93
2022-11-05T20:06:38.784Z,97460.68
2022-11-05T20:09:26.058Z,97458.92
2022-11-05T20:11:56.725Z,97456.63
2022-11-05T20:14:26.416Z,97455.58
2022-11-05T20:16:54.484Z,97458.55
2022-11-05T20:19:23.483Z,97463.52
2022-11-05T20:21:51.873Z,97467.00
2022-11-05T20:24:25.140Z,97467.72
2022-11-05T20:26:55.409Z,97472.20
2022-11-05T20:29:30.498Z,97473.55
2022-11-05T20:32:04.219Z,97474.83
2022-11-05T20:34:34.132Z,97479.75
2022-11-05T20:37:02.100Z,97479.59
2022-11-05T20:39:30.179Z,97477.85
2022-11-05T20:42:00.700Z,97480.36
2022-11-05T20:44:29.085Z,97481.50
2022-11-05T20:46:57.365Z,97484.25
2022-11-05T20:49:25.952Z,97482.83
2022-11-05T20:51:54.528Z,97487.84
2022-11-05T20:54:24.323Z,97486.97
2022-11-05T20:56:52.316Z,97487.46
2022-11-05T20:59:20.284Z,97487.34
2022-11-05T21:01:50.222Z,97485.98
2022-11-05T21:04:18.202Z,97492.08
2022-11-05T21:06:46.140Z,97493.02
2022-11-05T21:09:14.205Z,97490.36
2022-11-05T21:12:00.611Z,97487.67
2022-11-05T21:14:28.581Z,97487.30
2022-11-05T21:16:56.555Z,97487.10
2022-11-05T21:19:24.529Z,97487.04
2022-11-05T21:21:52.584Z,97490.11
2022-11-05T21:24:20.875Z,97493.87
2022-11-05T21:26:50.100Z,97490.63
2022-11-05T21:29:18.846Z,97489.80
2022-11-05T21:31:47.225Z,97493.58
2022-11-05T21:34:16.014Z,97493.73
2022-11-05T21:36:44.104Z,97493.91
2022-11-05T21:39:13.725Z,97494.96
2022-11-05T21:41:42.898Z,97498.88
2022-11-05T21:44:11.176Z,97497.98
2022-11-05T21:46:39.654Z,97501.94
2022-11-05T21:49:07.852Z,97498.73
2022-11-05T21:52:14.404Z,97503.29
2022-11-05T21:55:01.004Z,97504.93
2022-11-05T21:57:47.729Z,97507.36
2022-11-05T22:00:15.786Z,97508.77
2022-11-05T22:02:43.814Z,97508.65
2022-11-05T22:05:12.138Z,97507.04
2022-11-05T22:07:40.519Z,97507.84
2022-11-05T22:10:15.841Z,97511.41
2022-11-05T22:12:45.877Z,97512.90
2022-11-05T22:15:14.053Z,97513.89
2022-11-05T22:17:46.668Z,97516.28
2022-11-05T22:20:16.442Z,97518.33
2022-11-05T22:22:45.030Z,97515.98
2022-11-05T22:25:14.463Z,97515.33
2022-11-05T22:27:44.109Z,97514.17
2022-11-05T22:30:13.593Z,97516.14
2022-11-05T22:32:41.928Z,97516.63
2022-11-05T22:35:10.404Z,97521.52
2022-11-05T22:37:38.776Z,97519.52
2022-11-05T22:40:07.266Z,97519.50
2022-11-05T22:42:35.371Z,97523.52
2022-11-05T22:45:03.927Z,97527.24
2022-11-05T22:47:31.928Z,97524.90
2022-11-05T22:50:00.172Z,97521.70
2022-11-05T22:52:28.232Z,97519.77
2022-11-05T22:54:56.310Z,97519.84
2022-11-05T22:57:24.378Z,97516.65
2022-11-05T22:59:52.452Z,97520.19
2022-11-05T23:02:20.676Z,97524.09
2022-11-05T23:04:53.614Z,97523.87
2022-11-05T23:07:40.220Z,97526.88
2022-11-05T23:10:28.052Z,97532.17
2022-11-05T23:12:56.228Z,97534.52
2022-11-05T23:15:43.241Z,97535.48
2022-11-05T23:18:30.156Z,97536.30
2022-11-05T23:21:20.542Z,97534.45
2022-11-05T23:24:05.943Z,97533.00
2022-11-05T23:26:51.220Z,97536.54
2022-11-05T23:29:22.145Z,97539.55
2022-11-05T23:32:09.718Z,97539.64
2022-11-05T23:34:38.362Z,97541.68
2022-11-05T23:37:25.378Z,97548.43
2022-11-05T23:39:54.263Z,97548.04
2022-11-05T23:42:41.395Z,97551.23
2022-11-05T23:45:28.703Z,97551.61
2022-11-05T23:48:15.361Z,97553.86
2022-11-05T23:50:49.628Z,97552.33
2022-11-05T23:53:18.929Z,97551.04
2022-11-05T23:55:47.295Z,97558.27
2022-11-05T23:58:16.926Z,97558.37
